Time;durP1;ratioP1;P1;durP2;ratioP2;P2;SDS_P1;SDS_P2;PMS_P1;PMS_P2;Temp;Humidity;BMP_temperature;BMP_pressure;BME280_temperature;BME280_humidity;BME280_pressure;Samples;Min_cycle;Max_cycle;Signal;HPM_P1;HPM_P2
2022/02/22 00:00:32;;;;;;;3.55;0.57;;;;;;;;;;4823737;29;20095;-78
2022/02/22 00:02:59;;;;;;;2.22;0.35;;;;;;;;;;4807550;29;20069;-78
2022/02/22 00:05:25;;;;;;;2.70;0.55;;;;;;;;;;4823833;29;20030;-78
2022/02/22 00:07:53;;;;;;;1.77;0.52;;;;;;;;;;4807479;29;20034;-76
2022/02/22 00:10:20;;;;;;;2.55;0.47;;;;;;;;;;4810648;29;20030;-78
2022/02/22 00:12:46;;;;;;;1.10;0.47;;;;;;;;;;4827232;29;20031;-79
2022/02/22 00:15:12;;;;;;;2.42;0.50;;;;;;;;;;4827043;29;20027;-79
2022/02/22 00:17:39;;;;;;;1.45;0.40;;;;;;;;;;4826767;29;20121;-78
2022/02/22 00:20:06;;;;;;;2.42;0.60;;;;;;;;;;4810930;29;20026;-78
2022/02/22 00:22:34;;;;;;;3.40;0.50;;;;;;;;;;4810664;29;20107;-78
2022/02/22 00:25:00;;;;;;;2.30;0.60;;;;;;;;;;4826905;29;20046;-78
2022/02/22 00:27:26;;;;;;;2.28;0.73;;;;;;;;;;4810759;29;20034;-78
2022/02/22 00:29:54;;;;;;;4.97;0.60;;;;;;;;;;4826976;29;20045;-79
2022/02/22 00:32:21;;;;;;;1.23;0.30;;;;;;;;;;4810489;29;20026;-78
2022/02/22 00:34:47;;;;;;;1.25;0.30;;;;;;;;;;4810718;29;20030;-76
2022/02/22 00:37:14;;;;;;;1.50;0.30;;;;;;;;;;4810589;29;20480;-79
2022/02/22 00:39:40;;;;;;;0.80;0.22;;;;;;;;;;4810713;29;20023;-78
2022/02/22 00:42:06;;;;;;;3.45;0.50;;;;;;;;;;4810349;29;20076;-77
2022/02/22 00:44:33;;;;;;;2.83;0.40;;;;;;;;;;4810777;29;20034;-78
2022/02/22 00:46:59;;;;;;;1.30;0.30;;;;;;;;;;4826726;29;20030;-79
2022/02/22 00:49:25;;;;;;;2.95;0.30;;;;;;;;;;4826890;29;20138;-78
2022/02/22 00:51:52;;;;;;;2.10;0.50;;;;;;;;;;4810649;29;20030;-79
2022/02/22 00:54:18;;;;;;;1.67;0.75;;;;;;;;;;4827078;29;20040;-78
2022/02/22 00:56:44;;;;;;;1.25;0.30;;;;;;;;;;4811428;29;20034;-80
2022/02/22 00:59:10;;;;;;;2.30;0.30;;;;;;;;;;4826967;29;20042;-78
2022/02/22 01:01:36;;;;;;;2.67;0.40;;;;;;;;;;4810462;29;20066;-78
2022/02/22 01:04:03;;;;;;;2.28;0.35;;;;;;;;;;4809950;29;20030;-79
2022/02/22 01:06:29;;;;;;;1.75;0.52;;;;;;;;;;4810226;29;20552;-78
2022/02/22 01:08:55;;;;;;;0.63;0.30;;;;;;;;;;4826649;29;20101;-78
2022/02/22 01:11:22;;;;;;;1.55;0.30;;;;;;;;;;4810205;29;20030;-78
2022/02/22 01:13:48;;;;;;;2.13;0.20;;;;;;;;;;4826564;29;20040;-78
2022/02/22 01:16:14;;;;;;;0.85;0.30;;;;;;;;;;4826276;29;20038;-78
2022/02/22 01:18:40;;;;;;;1.85;0.30;;;;;;;;;;4810706;29;20134;-78
2022/02/22 01:21:06;;;;;;;1.35;0.30;;;;;;;;;;4825995;29;20030;-78
2022/02/22 01:23:32;;;;;;;2.15;0.40;;;;;;;;;;4810101;29;20527;-78
2022/02/22 01:26:00;;;;;;;2.30;0.50;;;;;;;;;;4812998;29;20392;-77
2022/02/22 01:28:26;;;;;;;1.55;0.40;;;;;;;;;;4811104;29;20026;-78
2022/02/22 01:30:52;;;;;;;0.93;0.30;;;;;;;;;;4809381;29;20030;-79
2022/02/22 01:33:18;;;;;;;2.20;0.30;;;;;;;;;;4825810;29;20068;-78
2022/02/22 01:35:46;;;;;;;0.80;0.28;;;;;;;;;;4825853;29;20034;-76
2022/02/22 01:38:12;;;;;;;2.20;0.40;;;;;;;;;;4825764;29;20041;-77
2022/02/22 01:40:38;;;;;;;0.90;0.20;;;;;;;;;;4809190;29;20034;-83
2022/02/22 01:43:04;;;;;;;5.00;2.08;;;;;;;;;;4809381;29;20136;-79
2022/02/22 01:45:30;;;;;;;2.53;0.25;;;;;;;;;;4825830;29;20499;-79
2022/02/22 01:47:57;;;;;;;0.35;0.17;;;;;;;;;;4809343;29;20547;-79
2022/02/22 01:50:24;;;;;;;1.85;0.20;;;;;;;;;;4809160;29;20492;-78
2022/02/22 01:52:50;;;;;;;1.98;0.25;;;;;;;;;;4809239;29;20022;-78
2022/02/22 01:55:18;;;;;;;0.50;0.20;;;;;;;;;;4809149;29;20443;-78
2022/02/22 01:57:45;;;;;;;0.25;0.10;;;;;;;;;;4809034;29;20396;-78
2022/02/22 02:00:12;;;;;;;0.55;0.10;;;;;;;;;;4825356;29;20023;-77
2022/02/22 02:02:38;;;;;;;2.60;0.25;;;;;;;;;;4809071;29;20038;-78
2022/02/22 02:05:05;;;;;;;0.10;0.10;;;;;;;;;;4825591;29;20036;-82
2022/02/22 02:07:31;;;;;;;4.03;0.20;;;;;;;;;;4809107;29;20400;-78
2022/02/22 02:09:57;;;;;;;0.77;0.20;;;;;;;;;;4825271;29;20026;-78
2022/02/22 02:12:23;;;;;;;0.30;0.10;;;;;;;;;;4825456;29;20489;-79
2022/02/22 02:14:50;;;;;;;0.73;0.22;;;;;;;;;;4809038;29;20060;-78
2022/02/22 02:17:16;;;;;;;0.70;0.20;;;;;;;;;;4808831;29;20038;-78
2022/02/22 02:19:43;;;;;;;2.25;0.30;;;;;;;;;;4808694;29;20080;-77
2022/02/22 02:22:09;;;;;;;0.85;0.30;;;;;;;;;;4808894;29;20031;-78
2022/02/22 02:24:35;;;;;;;0.40;0.20;;;;;;;;;;4808583;29;20062;-77
2022/02/22 02:27:03;;;;;;;0.40;0.10;;;;;;;;;;4808901;29;20030;-78
2022/02/22 02:29:29;;;;;;;0.65;0.20;;;;;;;;;;4825144;29;20034;-78
2022/02/22 02:31:57;;;;;;;0.50;0.15;;;;;;;;;;4808607;29;20392;-79
2022/02/22 02:34:25;;;;;;;0.50;0.20;;;;;;;;;;4824908;29;20038;-78
2022/02/22 02:36:51;;;;;;;1.15;0.20;;;;;;;;;;4825037;29;20042;-79
2022/02/22 02:39:17;;;;;;;0.63;0.30;;;;;;;;;;4808475;29;20034;-78
2022/02/22 02:41:45;;;;;;;0.65;0.30;;;;;;;;;;4808845;29;20030;-80
2022/02/22 02:44:12;;;;;;;0.60;0.30;;;;;;;;;;4808529;29;20030;-77
2022/02/22 02:46:39;;;;;;;0.60;0.28;;;;;;;;;;4808736;29;20049;-78
2022/02/22 02:49:06;;;;;;;1.65;0.52;;;;;;;;;;4808565;29;20157;-78
2022/02/22 02:51:32;;;;;;;0.82;0.35;;;;;;;;;;4808615;29;20035;-78
2022/02/22 02:53:58;;;;;;;0.90;0.47;;;;;;;;;;4824987;29;20391;-77
2022/02/22 02:56:25;;;;;;;1.25;0.40;;;;;;;;;;4808642;29;20036;-79
2022/02/22 02:58:58;;;;;;;1.30;0.52;;;;;;;;;;4808208;29;20141;-79
2022/02/22 03:01:25;;;;;;;2.40;0.60;;;;;;;;;;4824637;29;20065;-79
2022/02/22 03:03:51;;;;;;;0.90;0.47;;;;;;;;;;4824808;29;20035;-79
2022/02/22 03:06:18;;;;;;;0.90;0.40;;;;;;;;;;4825002;29;20105;-78
2022/02/22 03:08:44;;;;;;;1.67;0.65;;;;;;;;;;4808033;29;20050;-80
2022/02/22 03:11:10;;;;;;;0.90;0.40;;;;;;;;;;4824752;29;20443;-77
2022/02/22 03:13:37;;;;;;;1.17;0.40;;;;;;;;;;4808157;29;20037;-78
2022/02/22 03:16:03;;;;;;;1.95;0.50;;;;;;;;;;4824605;29;20919;-79
2022/02/22 03:18:29;;;;;;;0.70;0.32;;;;;;;;;;4807931;29;20050;-79
2022/02/22 03:20:56;;;;;;;2.00;0.50;;;;;;;;;;4824428;29;20064;-78
2022/02/22 03:23:22;;;;;;;4.03;0.47;;;;;;;;;;4807713;29;20058;-78
2022/02/22 03:25:49;;;;;;;1.02;0.40;;;;;;;;;;4807960;29;20027;-82
2022/02/22 03:28:15;;;;;;;1.92;0.50;;;;;;;;;;4824315;29;20088;-78
2022/02/22 03:30:41;;;;;;;1.35;0.50;;;;;;;;;;4824169;29;20030;-76
2022/02/22 03:33:11;;;;;;;0.90;0.50;;;;;;;;;;4824301;29;20111;-77
2022/02/22 03:35:38;;;;;;;1.15;0.40;;;;;;;;;;4824242;29;20121;-78
2022/02/22 03:38:05;;;;;;;0.90;0.35;;;;;;;;;;4824131;29;20043;-78
2022/02/22 03:40:31;;;;;;;1.30;0.50;;;;;;;;;;4824358;29;20041;-77
2022/02/22 03:42:57;;;;;;;1.00;0.40;;;;;;;;;;4824182;29;20036;-79
2022/02/22 03:45:23;;;;;;;1.40;0.50;;;;;;;;;;4811162;29;20034;-78
2022/02/22 03:47:50;;;;;;;0.75;0.40;;;;;;;;;;4811431;29;20027;-81
2022/02/22 03:50:16;;;;;;;1.17;0.60;;;;;;;;;;4811430;29;20045;-79
2022/02/22 03:52:43;;;;;;;1.15;0.40;;;;;;;;;;4827857;29;20031;-79
2022/02/22 03:55:10;;;;;;;2.75;0.50;;;;;;;;;;4811198;29;20031;-79
2022/02/22 03:57:36;;;;;;;1.63;0.50;;;;;;;;;;4811421;29;20042;-81
2022/02/22 04:00:08;;;;;;;1.75;0.43;;;;;;;;;;4811451;29;20032;-77
2022/02/22 04:02:34;;;;;;;1.67;0.40;;;;;;;;;;4811352;29;20467;-78
2022/02/22 04:05:01;;;;;;;1.35;0.50;;;;;;;;;;4827632;29;20037;-78
2022/02/22 04:07:28;;;;;;;4.10;0.40;;;;;;;;;;4827422;29;20485;-79
2022/02/22 04:09:54;;;;;;;0.82;0.40;;;;;;;;;;4811053;29;20022;-78
2022/02/22 04:12:20;;;;;;;1.52;0.50;;;;;;;;;;4827471;29;20052;-78
2022/02/22 04:14:48;;;;;;;1.23;0.38;;;;;;;;;;4811090;29;20026;-78
2022/02/22 04:17:14;;;;;;;0.85;0.40;;;;;;;;;;4810797;29;20066;-78
2022/02/22 04:19:40;;;;;;;1.25;0.50;;;;;;;;;;4827235;29;20038;-78
2022/02/22 04:22:06;;;;;;;4.80;0.50;;;;;;;;;;4810885;29;20037;-79
2022/02/22 04:24:36;;;;;;;0.90;0.50;;;;;;;;;;4827022;29;20134;-78
2022/02/22 04:27:02;;;;;;;2.13;0.50;;;;;;;;;;4810859;29;20042;-78
2022/02/22 04:29:29;;;;;;;1.48;0.70;;;;;;;;;;4810928;29;20037;-78
2022/02/22 04:31:55;;;;;;;1.25;0.50;;;;;;;;;;4827309;29;20038;-78
2022/02/22 04:34:21;;;;;;;1.98;0.57;;;;;;;;;;4812190;29;20476;-78
2022/02/22 04:36:47;;;;;;;0.82;0.40;;;;;;;;;;4810778;29;20031;-80
2022/02/22 04:39:13;;;;;;;1.23;0.60;;;;;;;;;;4811152;29;20062;-79
2022/02/22 04:41:40;;;;;;;1.48;0.50;;;;;;;;;;4810678;29;20027;-78
2022/02/22 04:44:06;;;;;;;1.95;0.52;;;;;;;;;;4826740;29;20042;-79
2022/02/22 04:46:32;;;;;;;1.60;0.40;;;;;;;;;;4810490;29;20058;-78
2022/02/22 04:48:59;;;;;;;1.92;0.52;;;;;;;;;;4810242;29;20068;-79
2022/02/22 04:51:25;;;;;;;1.10;0.50;;;;;;;;;;4810376;29;20037;-78
2022/02/22 04:53:51;;;;;;;1.88;0.75;;;;;;;;;;4810289;29;20111;-78
2022/02/22 04:56:17;;;;;;;2.88;0.57;;;;;;;;;;4810220;29;20026;-79
2022/02/22 04:58:43;;;;;;;2.15;0.40;;;;;;;;;;4826636;29;20046;-79
2022/02/22 05:01:10;;;;;;;1.73;0.50;;;;;;;;;;4809897;29;20121;-79
2022/02/22 05:03:36;;;;;;;2.50;0.50;;;;;;;;;;4826246;29;20030;-79
2022/02/22 05:06:02;;;;;;;6.05;0.68;;;;;;;;;;4826431;29;20056;-78
2022/02/22 05:08:28;;;;;;;1.85;0.40;;;;;;;;;;4810136;29;20030;-78
2022/02/22 05:10:55;;;;;;;1.73;0.40;;;;;;;;;;4826302;29;20047;-78
2022/02/22 05:13:21;;;;;;;1.80;0.60;;;;;;;;;;4809768;29;20030;-78
2022/02/22 05:15:47;;;;;;;1.73;0.40;;;;;;;;;;4826265;29;20499;-76
2022/02/22 05:18:13;;;;;;;1.67;0.40;;;;;;;;;;4810192;29;20217;-77
2022/02/22 05:20:54;;;;;;;1.08;0.30;;;;;;;;;;4809951;29;20033;-77
2022/02/22 05:23:21;;;;;;;0.57;0.20;;;;;;;;;;4809855;29;20103;-77
2022/02/22 05:25:47;;;;;;;1.27;0.47;;;;;;;;;;4809802;29;20040;-77
2022/02/22 05:28:13;;;;;;;1.75;0.50;;;;;;;;;;4826428;29;20037;-76
2022/02/22 05:30:40;;;;;;;1.17;0.50;;;;;;;;;;4809867;29;20125;-78
2022/02/22 05:33:06;;;;;;;1.63;0.43;;;;;;;;;;4826345;29;20034;-78
2022/02/22 05:35:32;;;;;;;0.75;0.30;;;;;;;;;;4826140;29;20121;-80
2022/02/22 05:37:59;;;;;;;2.75;0.50;;;;;;;;;;4826345;29;20069;-76
2022/02/22 05:40:25;;;;;;;1.60;0.35;;;;;;;;;;4809588;29;20102;-78
2022/02/22 05:42:51;;;;;;;3.13;0.68;;;;;;;;;;4826034;29;20031;-80
2022/02/22 05:45:17;;;;;;;1.08;0.30;;;;;;;;;;4809552;29;20091;-79
2022/02/22 05:47:43;;;;;;;2.88;0.50;;;;;;;;;;4825863;29;20038;-77
2022/02/22 05:50:10;;;;;;;1.80;0.55;;;;;;;;;;4809410;29;20041;-79
2022/02/22 05:52:36;;;;;;;3.72;0.50;;;;;;;;;;4809196;29;20522;-77
2022/02/22 05:55:02;;;;;;;0.95;0.43;;;;;;;;;;4826107;29;20033;-78
2022/02/22 05:57:28;;;;;;;4.53;0.60;;;;;;;;;;4825745;29;20102;-85
2022/02/22 05:59:54;;;;;;;5.65;1.73;;;;;;;;;;4825614;29;20473;-76
2022/02/22 06:02:20;;;;;;;6.05;2.55;;;;;;;;;;4807820;29;20045;-84
2022/02/22 06:04:46;;;;;;;2.03;0.70;;;;;;;;;;4809838;29;20391;-79
2022/02/22 06:07:13;;;;;;;1.85;0.50;;;;;;;;;;4824623;29;20022;-79
2022/02/22 06:09:39;;;;;;;4.15;0.75;;;;;;;;;;4846429;29;20523;-79
2022/02/22 06:12:06;;;;;;;1.33;0.68;;;;;;;;;;4827100;29;20113;-77
2022/02/22 06:14:33;;;;;;;2.08;0.80;;;;;;;;;;4843325;29;20030;-76
2022/02/22 06:16:59;;;;;;;3.25;0.70;;;;;;;;;;4844096;29;20037;-77
2022/02/22 06:19:26;;;;;;;1.67;0.60;;;;;;;;;;4848323;29;20034;-76
2022/02/22 06:21:52;;;;;;;1.02;0.50;;;;;;;;;;4830971;29;20030;-88
2022/02/22 06:24:18;;;;;;;2.35;0.70;;;;;;;;;;4827184;29;20064;-79
2022/02/22 06:26:44;;;;;;;2.20;0.38;;;;;;;;;;4843648;29;20548;-79
2022/02/22 06:29:10;;;;;;;1.27;0.40;;;;;;;;;;4827118;29;20080;-77
2022/02/22 06:31:37;;;;;;;1.35;0.50;;;;;;;;;;4827205;29;20030;-82
2022/02/22 06:34:05;;;;;;;3.47;0.70;;;;;;;;;;4827456;29;20114;-81
2022/02/22 06:36:32;;;;;;;1.67;0.40;;;;;;;;;;4827183;29;20030;-78
2022/02/22 06:38:59;;;;;;;2.55;0.70;;;;;;;;;;4827376;29;20026;-89
2022/02/22 06:41:25;;;;;;;1.25;0.30;;;;;;;;;;4827222;29;20091;-78
2022/02/22 06:43:51;;;;;;;1.58;0.40;;;;;;;;;;4843856;29;20137;-85
2022/02/22 06:46:17;;;;;;;1.70;0.40;;;;;;;;;;4827611;29;20030;-85
2022/02/22 06:48:43;;;;;;;0.93;0.20;;;;;;;;;;4827461;29;20124;-84
2022/02/22 06:51:09;;;;;;;1.08;0.47;;;;;;;;;;4843460;29;20083;-87
2022/02/22 06:53:38;;;;;;;1.30;0.38;;;;;;;;;;4882091;23;20141;-85
2022/02/22 06:56:05;;;;;;;1.63;0.43;;;;;;;;;;4825808;29;20361;-86
2022/02/22 06:58:31;;;;;;;2.35;0.45;;;;;;;;;;4809023;29;20038;-83
2022/02/22 07:00:58;;;;;;;0.60;0.20;;;;;;;;;;4809476;29;20052;-85
2022/02/22 07:03:25;;;;;;;4.18;0.43;;;;;;;;;;4809126;29;20034;-84
2022/02/22 07:05:52;;;;;;;0.35;0.10;;;;;;;;;;4829467;29;20041;-82
2022/02/22 07:08:18;;;;;;;2.35;0.57;;;;;;;;;;4835859;29;20040;-83
2022/02/22 07:10:44;;;;;;;0.65;0.38;;;;;;;;;;4811982;29;20448;-85
2022/02/22 07:13:10;;;;;;;2.60;0.25;;;;;;;;;;4808796;29;20030;-79
2022/02/22 07:15:37;;;;;;;4.68;0.32;;;;;;;;;;4824766;29;20045;-84
2022/02/22 07:18:07;;;;;;;5.90;0.95;;;;;;;;;;4824782;29;20048;-83
2022/02/22 07:20:33;;;;;;;0.68;0.20;;;;;;;;;;4812471;29;20033;-83
2022/02/22 07:23:02;;;;;;;1.63;0.43;;;;;;;;;;4812259;29;20507;-80
2022/02/22 07:25:29;;;;;;;1.15;0.40;;;;;;;;;;4813327;29;20031;-85
2022/02/22 07:27:56;;;;;;;1.20;0.30;;;;;;;;;;4812816;29;20031;-85
2022/02/22 07:30:22;;;;;;;2.47;0.50;;;;;;;;;;4812138;29;20038;-82
2022/02/22 07:32:49;;;;;;;1.27;0.50;;;;;;;;;;4812909;29;20113;-85
2022/02/22 07:35:15;;;;;;;2.83;0.40;;;;;;;;;;4812295;29;20084;-84
2022/02/22 07:37:42;;;;;;;1.65;0.57;;;;;;;;;;4812055;29;20042;-78
2022/02/22 07:40:09;;;;;;;2.17;0.70;;;;;;;;;;4811832;29;20034;-80
2022/02/22 07:42:38;;;;;;;1.88;0.40;;;;;;;;;;4811136;29;20034;-80
2022/02/22 07:45:05;;;;;;;1.20;0.22;;;;;;;;;;4826807;29;20033;-82
2022/02/22 07:47:32;;;;;;;1.40;0.50;;;;;;;;;;4810627;29;20026;-83
2022/02/22 07:50:01;;;;;;;1.00;0.35;;;;;;;;;;4828530;29;20035;-85
2022/02/22 07:52:27;;;;;;;0.82;0.30;;;;;;;;;;4805692;29;20030;-86
2022/02/22 07:54:54;;;;;;;1.95;0.32;;;;;;;;;;4813289;29;20097;-86
2022/02/22 07:57:20;;;;;;;0.43;0.20;;;;;;;;;;4811822;29;20050;-85
2022/02/22 07:59:46;;;;;;;1.83;0.30;;;;;;;;;;4826942;29;20026;-78
2022/02/22 08:02:12;;;;;;;1.10;0.30;;;;;;;;;;4810630;29;20038;-87
2022/02/22 08:04:40;;;;;;;0.50;0.20;;;;;;;;;;4826141;29;20113;-78
2022/02/22 08:07:08;;;;;;;0.57;0.08;;;;;;;;;;4827279;29;20038;-77
2022/02/22 08:09:34;;;;;;;1.80;0.57;;;;;;;;;;4809954;29;20026;-77
2022/02/22 08:12:00;;;;;;;1.85;0.25;;;;;;;;;;4810119;29;20069;-76
2022/02/22 08:14:26;;;;;;;0.82;0.20;;;;;;;;;;4810488;29;20385;-77
2022/02/22 08:17:02;;;;;;;0.82;0.40;;;;;;;;;;4826181;29;20176;-76
2022/02/22 08:19:28;;;;;;;0.10;0.10;;;;;;;;;;4810176;29;20050;-77
2022/02/22 08:21:57;;;;;;;1.35;0.30;;;;;;;;;;4809069;29;20030;-77
2022/02/22 08:24:24;;;;;;;2.50;0.75;;;;;;;;;;4809658;29;20077;-76
2022/02/22 08:26:51;;;;;;;0.52;0.28;;;;;;;;;;4809984;29;20480;-77
2022/02/22 08:29:17;;;;;;;0.68;0.20;;;;;;;;;;4809954;29;20555;-76
2022/02/22 08:31:44;;;;;;;1.58;0.35;;;;;;;;;;4810017;29;20027;-77
2022/02/22 08:34:10;;;;;;;2.05;0.35;;;;;;;;;;4826597;29;20030;-77
2022/02/22 08:36:36;;;;;;;3.30;0.30;;;;;;;;;;4826295;29;20018;-78
2022/02/22 08:39:02;;;;;;;1.80;0.20;;;;;;;;;;4810166;29;20467;-80
2022/02/22 08:41:29;;;;;;;1.10;0.22;;;;;;;;;;4810367;29;20053;-78
2022/02/22 08:43:55;;;;;;;0.75;0.20;;;;;;;;;;4810158;29;20034;-77
2022/02/22 08:46:21;;;;;;;0.88;0.40;;;;;;;;;;4810108;29;20030;-77
2022/02/22 08:48:48;;;;;;;1.58;0.22;;;;;;;;;;4809259;29;20096;-77
2022/02/22 08:51:14;;;;;;;0.25;0.10;;;;;;;;;;4809974;29;20030;-77
2022/02/22 08:53:40;;;;;;;1.20;0.30;;;;;;;;;;4809720;29;20054;-76
2022/02/22 08:56:07;;;;;;;0.40;0.10;;;;;;;;;;4809912;29;20117;-78
2022/02/22 08:58:33;;;;;;;0.45;0.20;;;;;;;;;;4812600;29;20510;-77
2022/02/22 09:01:05;;;;;;;1.13;0.20;;;;;;;;;;4828279;29;20116;-78
2022/02/22 09:03:32;;;;;;;1.13;0.30;;;;;;;;;;4844456;29;20022;-77
2022/02/22 09:05:59;;;;;;;1.80;0.10;;;;;;;;;;4827906;29;20117;-78
2022/02/22 09:08:25;;;;;;;0.77;0.20;;;;;;;;;;4827933;29;20068;-79
2022/02/22 09:10:52;;;;;;;0.52;0.15;;;;;;;;;;4827644;29;20045;-77
2022/02/22 09:13:18;;;;;;;0.60;0.20;;;;;;;;;;4827823;29;20392;-78
2022/02/22 09:15:44;;;;;;;2.67;0.32;;;;;;;;;;4844211;29;20052;-77
2022/02/22 09:18:11;;;;;;;0.38;0.20;;;;;;;;;;4827809;29;20034;-78
2022/02/22 09:20:37;;;;;;;0.43;0.20;;;;;;;;;;4828130;29;20125;-78
2022/02/22 09:23:03;;;;;;;0.50;0.15;;;;;;;;;;4828067;29;20044;-79
2022/02/22 09:25:32;;;;;;;1.08;0.20;;;;;;;;;;4827847;29;20034;-76
2022/02/22 09:27:59;;;;;;;2.08;0.40;;;;;;;;;;4828203;29;20082;-77
2022/02/22 09:30:25;;;;;;;0.77;0.20;;;;;;;;;;4828325;29;20404;-78
2022/02/22 09:32:52;;;;;;;0.75;0.20;;;;;;;;;;4831549;29;20610;-79
2022/02/22 09:35:20;;;;;;;0.57;0.20;;;;;;;;;;4827502;29;20026;-78
2022/02/22 09:37:46;;;;;;;1.85;0.43;;;;;;;;;;4844660;29;20034;-78
2022/02/22 09:40:13;;;;;;;0.85;0.30;;;;;;;;;;4844274;29;20041;-78
2022/02/22 09:42:39;;;;;;;0.70;0.20;;;;;;;;;;4826566;29;20037;-76
2022/02/22 09:45:07;;;;;;;1.20;0.22;;;;;;;;;;4827291;29;20037;-78
2022/02/22 09:47:33;;;;;;;0.80;0.20;;;;;;;;;;4827171;29;20506;-77
2022/02/22 09:49:59;;;;;;;0.82;0.20;;;;;;;;;;4843664;29;20029;-76
2022/02/22 09:52:26;;;;;;;1.20;0.22;;;;;;;;;;4827171;29;20403;-78
2022/02/22 09:54:52;;;;;;;0.70;0.28;;;;;;;;;;4826829;29;20089;-76
2022/02/22 09:57:18;;;;;;;1.42;0.20;;;;;;;;;;4827155;29;20042;-89
2022/02/22 09:59:44;;;;;;;0.68;0.22;;;;;;;;;;4831463;29;20027;-77
2022/02/22 10:02:10;;;;;;;0.63;0.20;;;;;;;;;;4823465;29;20030;-76
2022/02/22 10:04:47;;;;;;;4.00;0.38;;;;;;;;;;4808342;29;20043;-78
2022/02/22 10:07:14;;;;;;;1.08;0.20;;;;;;;;;;4825384;29;20435;-76
2022/02/22 10:10:02;;;;;;;2.33;0.40;;;;;;;;;;4823944;29;20031;-76
2022/02/22 10:12:35;;;;;;;1.67;0.30;;;;;;;;;;4824906;29;20019;-76
2022/02/22 10:15:03;;;;;;;1.00;0.17;;;;;;;;;;4825198;29;20030;-76
2022/02/22 10:17:35;;;;;;;0.77;0.20;;;;;;;;;;4823970;29;20042;-76
2022/02/22 10:20:02;;;;;;;1.05;0.25;;;;;;;;;;4825034;29;20114;-75
2022/02/22 10:22:28;;;;;;;0.95;0.25;;;;;;;;;;4825253;29;20364;-78
2022/02/22 10:25:05;;;;;;;0.32;0.10;;;;;;;;;;4823651;29;20118;-77
2022/02/22 10:27:42;;;;;;;0.57;0.15;;;;;;;;;;4823996;29;20022;-77
2022/02/22 10:30:23;;;;;;;2.25;0.30;;;;;;;;;;4824886;29;20537;-77
2022/02/22 10:33:09;;;;;;;1.23;0.28;;;;;;;;;;5070751;28;20399;-78
2022/02/22 10:35:35;;;;;;;0.75;0.38;;;;;;;;;;5069395;28;20043;-77
2022/02/22 10:38:11;;;;;;;0.68;0.30;;;;;;;;;;5068591;28;20424;-77
2022/02/22 10:40:37;;;;;;;0.50;0.30;;;;;;;;;;5068364;28;20032;-78
2022/02/22 10:43:04;;;;;;;0.38;0.13;;;;;;;;;;5068909;28;20035;-79
2022/02/22 10:45:30;;;;;;;0.98;0.30;;;;;;;;;;5069270;28;20025;-78
2022/02/22 10:47:58;;;;;;;0.60;0.20;;;;;;;;;;5068916;28;20025;-78
2022/02/22 10:50:26;;;;;;;1.00;0.30;;;;;;;;;;5069139;28;20112;-79
2022/02/22 10:52:53;;;;;;;1.30;0.30;;;;;;;;;;5069016;28;20042;-78
2022/02/22 10:55:19;;;;;;;1.13;0.50;;;;;;;;;;5069139;28;20123;-82
2022/02/22 10:57:47;;;;;;;1.65;0.60;;;;;;;;;;5069279;28;20051;-79
2022/02/22 11:00:15;;;;;;;1.00;0.50;;;;;;;;;;5068641;28;20028;-79
2022/02/22 11:02:44;;;;;;;2.80;0.52;;;;;;;;;;5070199;28;20104;-78
2022/02/22 11:05:10;;;;;;;2.47;0.60;;;;;;;;;;5068857;28;20025;-78
2022/02/22 11:07:36;;;;;;;0.82;0.50;;;;;;;;;;5069860;28;20024;-78
2022/02/22 11:10:03;;;;;;;2.20;0.40;;;;;;;;;;5068971;28;20028;-78
2022/02/22 11:12:33;;;;;;;1.77;0.60;;;;;;;;;;5070263;28;20370;-78
2022/02/22 11:15:10;;;;;;;1.90;0.60;;;;;;;;;;5067777;28;20025;-81
2022/02/22 11:17:47;;;;;;;2.55;0.40;;;;;;;;;;5066291;28;20067;-77
2022/02/22 11:20:26;;;;;;;1.55;0.38;;;;;;;;;;5065896;28;20024;-80
2022/02/22 11:22:56;;;;;;;1.33;0.30;;;;;;;;;;5065835;28;20028;-80
2022/02/22 11:25:30;;;;;;;1.15;0.30;;;;;;;;;;5068077;28;20469;-79
2022/02/22 11:28:04;;;;;;;2.13;0.43;;;;;;;;;;5065833;28;20393;-78
2022/02/22 11:30:30;;;;;;;1.13;0.30;;;;;;;;;;5068289;28;20025;-79
2022/02/22 11:32:58;;;;;;;1.08;0.40;;;;;;;;;;5068025;28;20056;-79
2022/02/22 11:35:24;;;;;;;2.22;0.40;;;;;;;;;;5067533;28;20036;-78
2022/02/22 11:37:51;;;;;;;0.73;0.30;;;;;;;;;;5068923;28;20020;-78
2022/02/22 11:40:25;;;;;;;1.40;0.50;;;;;;;;;;5067605;28;20381;-78
2022/02/22 11:42:51;;;;;;;1.00;0.22;;;;;;;;;;5061699;28;20202;-79
2022/02/22 11:45:25;;;;;;;0.82;0.30;;;;;;;;;;5054626;28;20144;-81
2022/02/22 11:48:11;;;;;;;0.88;0.40;;;;;;;;;;5054551;28;20020;-78
2022/02/22 11:50:40;;;;;;;1.58;0.40;;;;;;;;;;5053795;28;20079;-79
2022/02/22 11:53:11;;;;;;;1.85;0.40;;;;;;;;;;5055497;28;20103;-78
2022/02/22 11:55:38;;;;;;;1.50;0.50;;;;;;;;;;5054473;28;20097;-78
2022/02/22 11:58:19;;;;;;;1.52;0.55;;;;;;;;;;5054403;28;20075;-77
2022/02/22 12:00:46;;;;;;;1.38;0.50;;;;;;;;;;5039588;28;20033;-78
2022/02/22 12:03:13;;;;;;;2.03;0.60;;;;;;;;;;5055837;28;20032;-77
2022/02/22 12:05:44;;;;;;;1.73;0.50;;;;;;;;;;5054536;28;20025;-77
2022/02/22 12:08:17;;;;;;;1.42;0.28;;;;;;;;;;5054457;28;20033;-78
2022/02/22 12:10:57;;;;;;;2.53;0.60;;;;;;;;;;5054311;28;20071;-78
2022/02/22 12:13:44;;;;;;;3.25;0.60;;;;;;;;;;5053977;28;20039;-78
2022/02/22 12:16:25;;;;;;;2.97;0.85;;;;;;;;;;5053595;28;20021;-79
2022/02/22 12:18:52;;;;;;;3.28;1.23;;;;;;;;;;5054217;28;20025;-78
2022/02/22 12:21:19;;;;;;;6.22;1.52;;;;;;;;;;5055077;28;20029;-77
2022/02/22 12:23:46;;;;;;;2.22;0.95;;;;;;;;;;5054105;28;20470;-80
2022/02/22 12:26:13;;;;;;;4.57;1.23;;;;;;;;;;5054053;28;20025;-77
2022/02/22 12:28:50;;;;;;;3.00;1.30;;;;;;;;;;5054078;28;20120;-77
2022/02/22 12:31:43;;;;;;;4.80;0.93;;;;;;;;;;5053739;28;20428;-78
2022/02/22 12:34:17;;;;;;;4.35;0.93;;;;;;;;;;5051752;28;20371;-76
2022/02/22 12:36:43;;;;;;;;;;;;;;;;;;5056528;28;20350;-77
2022/02/22 12:39:13;;;;;;;4.75;1.30;;;;;;;;;;5053841;28;19905;-77
2022/02/22 12:41:40;;;;;;;4.97;1.10;;;;;;;;;;5053825;28;20132;-78
2022/02/22 12:44:08;;;;;;;3.55;1.35;;;;;;;;;;5053732;28;20060;-77
2022/02/22 12:46:34;;;;;;;4.03;1.13;;;;;;;;;;5053735;28;20071;-79
2022/02/22 12:49:10;;;;;;;5.97;1.17;;;;;;;;;;5053801;28;20121;-78
2022/02/22 12:51:38;;;;;;;2.65;0.82;;;;;;;;;;5056443;28;20071;-78
2022/02/22 12:54:08;;;;;;;10.32;2.00;;;;;;;;;;5053199;28;20029;-79
2022/02/22 12:56:35;;;;;;;5.03;1.00;;;;;;;;;;5053126;28;20029;-79
2022/02/22 13:01:40;;;;;;;4.05;0.90;;;;;;;;;;5292438;22;20498;-78
2022/02/22 13:04:11;;;;;;;5.30;1.45;;;;;;;;;;4997167;28;20026;-78
2022/02/22 13:06:38;;;;;;;4.35;1.10;;;;;;;;;;5029734;28;20078;-78
2022/02/22 13:09:11;;;;;;;5.82;1.10;;;;;;;;;;5014566;28;20033;-79
2022/02/22 13:11:37;;;;;;;5.97;0.90;;;;;;;;;;5014714;28;20038;-78
2022/02/22 13:14:05;;;;;;;5.32;1.15;;;;;;;;;;5014479;28;20022;-78
2022/02/22 13:16:31;;;;;;;4.72;1.17;;;;;;;;;;5014300;28;20061;-79
2022/02/22 13:18:58;;;;;;;6.93;1.05;;;;;;;;;;4996989;28;20025;-79
2022/02/22 13:21:26;;;;;;;6.55;0.90;;;;;;;;;;4996711;28;20036;-78
2022/02/22 13:23:53;;;;;;;2.22;0.80;;;;;;;;;;5014369;28;20033;-78
2022/02/22 13:26:19;;;;;;;2.67;0.90;;;;;;;;;;5013866;28;20052;-79
2022/02/22 13:28:46;;;;;;;2.75;0.60;;;;;;;;;;5029663;28;20025;-79
2022/02/22 13:31:13;;;;;;;4.50;1.30;;;;;;;;;;4996367;28;20044;-78
2022/02/22 13:33:39;;;;;;;5.88;1.30;;;;;;;;;;5014194;28;20029;-78
2022/02/22 13:36:11;;;;;;;6.20;1.50;;;;;;;;;;5014268;28;20471;-78
2022/02/22 13:38:37;;;;;;;10.20;2.50;;;;;;;;;;4996509;28;20030;-78
2022/02/22 13:41:15;;;;;;;9.75;2.30;;;;;;;;;;4996432;28;20052;-78
2022/02/22 13:43:41;;;;;;;6.70;1.58;;;;;;;;;;5013664;28;20018;-78
2022/02/22 13:46:08;;;;;;;3.00;0.88;;;;;;;;;;5029153;28;20026;-77
2022/02/22 13:48:34;;;;;;;7.25;2.55;;;;;;;;;;5013980;28;20038;-78
2022/02/22 13:51:07;;;;;;;6.45;1.65;;;;;;;;;;5029118;28;20398;-80
2022/02/22 13:53:33;;;;;;;7.88;1.88;;;;;;;;;;4996124;28;20528;-79
2022/02/22 13:56:02;;;;;;;4.80;1.20;;;;;;;;;;5013863;28;20108;-77
2022/02/22 13:58:29;;;;;;;5.78;1.20;;;;;;;;;;5016170;28;20024;-78
2022/02/22 14:00:59;;;;;;;4.45;0.88;;;;;;;;;;5048731;28;20029;-78
2022/02/22 14:03:26;;;;;;;6.47;1.38;;;;;;;;;;5033000;28;20520;-78
2022/02/22 14:05:53;;;;;;;3.88;0.90;;;;;;;;;;5048370;28;20017;-77
2022/02/22 14:08:19;;;;;;;2.25;0.80;;;;;;;;;;5048632;28;20040;-78
2022/02/22 14:10:46;;;;;;;4.30;0.85;;;;;;;;;;5048920;28;20021;-78
2022/02/22 14:13:13;;;;;;;5.13;0.93;;;;;;;;;;5015831;28;20421;-79
2022/02/22 14:15:40;;;;;;;2.70;0.90;;;;;;;;;;5048869;28;20117;-79
2022/02/22 14:18:07;;;;;;;6.55;1.17;;;;;;;;;;5015403;28;20030;-79
2022/02/22 14:20:36;;;;;;;1.95;0.70;;;;;;;;;;5033589;28;20025;-78
2022/02/22 14:23:03;;;;;;;2.88;0.65;;;;;;;;;;5033436;28;20386;-79
2022/02/22 14:25:31;;;;;;;5.25;0.60;;;;;;;;;;5048901;28;20437;-78
2022/02/22 14:28:01;;;;;;;5.63;0.90;;;;;;;;;;5048939;28;20031;-79
2022/02/22 14:30:33;;;;;;;3.33;0.70;;;;;;;;;;5015791;28;20029;-79
2022/02/22 14:32:59;;;;;;;2.47;0.55;;;;;;;;;;5048562;28;20060;-78
2022/02/22 14:35:25;;;;;;;4.40;0.52;;;;;;;;;;5014987;28;20031;-78
2022/02/22 14:37:51;;;;;;;3.13;0.60;;;;;;;;;;5048524;28;20486;-78
2022/02/22 14:40:18;;;;;;;4.18;0.70;;;;;;;;;;5033016;28;20022;-77
2022/02/22 14:42:44;;;;;;;4.35;0.68;;;;;;;;;;5048137;28;20056;-78
2022/02/22 14:45:10;;;;;;;5.05;0.70;;;;;;;;;;5033192;28;20408;-78
2022/02/22 14:47:36;;;;;;;2.25;0.65;;;;;;;;;;5047330;28;20179;-78